createdAt,value
2022-11-15T00:00:04.888Z,67.10
2022-11-15T00:02:35.004Z,58.25
2022-11-15T00:05:05.374Z,59.00
2022-11-15T00:07:54.553Z,63.75
2022-11-15T00:10:23.631Z,65.22
2022-11-15T00:12:52.135Z,57.35
2022-11-15T00:15:20.582Z,65.50
2022-11-15T00:17:52.129Z,63.60
2022-11-15T00:20:22.215Z,61.33
2022-11-15T00:22:52.337Z,65.85
2022-11-15T00:25:22.490Z,62.15
2022-11-15T00:27:58.442Z,62.13
2022-11-15T00:30:29.808Z,62.78
2022-11-15T00:33:08.066Z,59.95
2022-11-15T00:35:38.240Z,55.85
2022-11-15T00:38:08.442Z,58.13
2022-11-15T00:40:38.552Z,60.50
2022-11-15T00:43:08.732Z,62.92
2022-11-15T00:45:37.272Z,61.63
2022-11-15T00:48:06.142Z,62.42
2022-11-15T00:50:33.894Z,51.65
2022-11-15T00:53:02.286Z,60.65
2022-11-15T00:55:30.808Z,63.50
2022-11-15T00:57:59.184Z,54.65
2022-11-15T01:00:27.942Z,65.93
2022-11-15T01:02:57.598Z,60.72
2022-11-15T01:05:27.607Z,61.05
2022-11-15T01:07:57.526Z,62.22
2022-11-15T01:10:27.744Z,57.13
2022-11-15T01:12:58.742Z,64.38
2022-11-15T01:15:28.867Z,59.58
2022-11-15T01:17:58.981Z,60.95
2022-11-15T01:20:31.895Z,56.83
2022-11-15T01:23:01.963Z,55.10
2022-11-15T01:25:32.019Z,57.55
2022-11-15T01:28:02.146Z,55.88
2022-11-15T01:30:32.383Z,58.90
2022-11-15T01:33:02.595Z,60.83
2022-11-15T01:35:33.344Z,55.53
2022-11-15T01:38:03.550Z,52.58
2022-11-15T01:40:33.962Z,62.60
2022-11-15T01:43:37.666Z,58.90
2022-11-15T01:46:25.066Z,67.82
2022-11-15T01:49:03.606Z,63.88
2022-11-15T01:54:18.192Z,63.00
2022-11-15T01:57:08.714Z,62.70
2022-11-15T01:59:45.661Z,56.88
2022-11-15T02:02:14.957Z,57.97
2022-11-15T02:04:47.955Z,60.53
2022-11-15T02:07:22.776Z,65.45
2022-11-15T02:09:53.825Z,60.03
2022-11-15T02:12:24.874Z,56.83
2022-11-15T02:14:57.558Z,59.15
2022-11-15T02:18:24.773Z,63.70
2022-11-15T02:21:44.792Z,61.17
2022-11-15T02:24:58.121Z,58.10
2022-11-15T02:28:01.015Z,62.58
2022-11-15T02:31:03.932Z,61.50
2022-11-15T02:34:03.622Z,60.42
2022-11-15T02:39:57.119Z,57.20
2022-11-15T02:43:09.430Z,73.25
2022-11-15T02:45:58.081Z,60.22
2022-11-15T02:48:28.457Z,59.58
2022-11-15T02:50:59.317Z,56.10
2022-11-15T02:53:29.765Z,63.33
2022-11-15T02:55:59.654Z,62.28
2022-11-15T02:59:15.209Z,59.40
2022-11-15T03:02:01.231Z,65.70
2022-11-15T03:04:50.924Z,60.65
2022-11-15T03:07:52.353Z,61.30
2022-11-15T03:11:01.690Z,62.45
2022-11-15T03:14:16.033Z,62.42
2022-11-15T03:17:19.757Z,62.83
2022-11-15T03:20:00.480Z,60.17
2022-11-15T03:22:45.256Z,61.83
2022-11-15T03:25:26.518Z,66.45
2022-11-15T03:28:07.940Z,58.05
2022-11-15T03:30:42.487Z,69.38
2022-11-15T03:33:13.465Z,59.13
2022-11-15T03:35:49.651Z,65.53
2022-11-15T03:38:36.624Z,57.90
2022-11-15T03:41:41.740Z,62.03
2022-11-15T03:44:55.570Z,54.40
2022-11-15T03:47:45.225Z,62.08
2022-11-15T03:50:24.305Z,62.17
2022-11-15T03:52:58.091Z,67.47
2022-11-15T03:55:26.016Z,70.22
2022-11-15T03:58:01.333Z,64.07
2022-11-15T04:00:30.966Z,62.03
2022-11-15T04:03:00.484Z,64.72
2022-11-15T04:05:30.519Z,63.42
2022-11-15T04:08:00.196Z,59.67
2022-11-15T04:10:29.988Z,64.07
2022-11-15T04:12:59.886Z,56.05
2022-11-15T04:15:32.983Z,59.15
2022-11-15T04:18:03.120Z,65.10
2022-11-15T04:21:09.493Z,61.17
2022-11-15T04:23:58.418Z,59.72
2022-11-15T04:26:28.782Z,59.45
2022-11-15T04:29:15.554Z,57.85
2022-11-15T04:31:46.006Z,64.85
2022-11-15T04:34:16.101Z,60.63
2022-11-15T04:37:05.021Z,56.65
2022-11-15T04:39:35.113Z,61.67
2022-11-15T04:42:09.191Z,59.03
2022-11-15T04:44:39.847Z,64.93
2022-11-15T04:47:10.932Z,56.97
2022-11-15T04:49:41.068Z,61.25
2022-11-15T04:52:11.316Z,60.88
2022-11-15T04:54:43.271Z,61.25
2022-11-15T04:57:13.426Z,62.00
2022-11-15T04:59:43.574Z,57.72
2022-11-15T05:02:12.111Z,58.83
2022-11-15T05:04:41.727Z,71.95
2022-11-15T05:07:09.372Z,70.97
2022-11-15T05:09:37.827Z,61.25
2022-11-15T05:12:10.492Z,65.88
2022-11-15T05:14:40.971Z,63.63
2022-11-15T05:17:11.115Z,68.22
2022-11-15T05:19:41.437Z,70.68
2022-11-15T05:22:11.631Z,62.97
2022-11-15T05:24:41.799Z,67.43
2022-11-15T05:27:11.899Z,57.03
2022-11-15T05:29:42.047Z,54.90
2022-11-15T05:32:14.346Z,64.90
2022-11-15T05:34:45.488Z,64.10
2022-11-15T05:37:17.783Z,58.88
2022-11-15T05:39:47.944Z,62.22
2022-11-15T05:42:19.966Z,59.25
2022-11-15T05:44:51.606Z,60.97
2022-11-15T05:47:30.477Z,64.35
2022-11-15T05:50:00.764Z,66.75
2022-11-15T05:52:38.333Z,56.72
2022-11-15T05:55:11.672Z,66.13
2022-11-15T05:57:42.780Z,59.10
2022-11-15T06:00:14.564Z,60.75
2022-11-15T06:02:45.075Z,61.15
2022-11-15T06:05:15.911Z,62.75
2022-11-15T06:07:46.181Z,48.03
2022-11-15T06:10:17.426Z,55.65
2022-11-15T06:12:45.131Z,62.85
2022-11-15T06:15:13.292Z,55.97
2022-11-15T06:17:41.649Z,63.53
2022-11-15T06:20:11.440Z,64.25
2022-11-15T06:22:38.607Z,55.85
2022-11-15T06:25:07.699Z,61.42
2022-11-15T06:27:35.557Z,62.83
2022-11-15T06:30:04.450Z,57.63
2022-11-15T06:32:32.583Z,65.05
2022-11-15T06:35:00.870Z,65.25
2022-11-15T06:37:29.093Z,59.15
2022-11-15T06:39:57.678Z,62.67
2022-11-15T06:42:26.098Z,58.38
2022-11-15T06:44:54.463Z,65.55
2022-11-15T06:47:22.964Z,70.63
2022-11-15T06:49:51.494Z,71.70
2022-11-15T06:52:20.694Z,65.88
2022-11-15T06:54:48.383Z,69.80
2022-11-15T06:57:16.560Z,65.78
2022-11-15T06:59:45.046Z,58.88
2022-11-15T07:02:15.156Z,66.03
2022-11-15T07:04:44.809Z,70.55
2022-11-15T07:07:13.295Z,67.90
2022-11-15T07:09:41.753Z,63.35
2022-11-15T07:12:14.524Z,62.13
2022-11-15T07:14:44.603Z,72.07
2022-11-15T07:17:14.771Z,69.07
2022-11-15T07:19:44.914Z,68.63
2022-11-15T07:23:39.475Z,77.15
2022-11-15T07:26:10.266Z,71.28
2022-11-15T07:28:40.478Z,77.95
2022-11-15T07:31:12.184Z,80.82
2022-11-15T07:33:42.327Z,82.47
2022-11-15T07:36:12.376Z,83.93
2022-11-15T07:38:43.219Z,72.63
2022-11-15T07:41:13.419Z,75.22
2022-11-15T07:43:43.609Z,77.97
2022-11-15T07:46:13.763Z,75.75
2022-11-15T07:48:45.272Z,82.07
2022-11-15T07:51:18.169Z,78.65
2022-11-15T07:53:48.196Z,75.07
2022-11-15T07:56:18.443Z,76.38
2022-11-15T07:58:48.463Z,68.82
2022-11-15T08:01:18.507Z,86.70
2022-11-15T08:03:48.664Z,74.85
2022-11-15T08:06:18.562Z,73.65
2022-11-15T08:08:49.022Z,79.00
2022-11-15T08:11:19.187Z,84.20
2022-11-15T08:13:49.231Z,80.22
2022-11-15T08:16:19.022Z,80.05
2022-11-15T08:18:47.941Z,72.88
2022-11-15T08:21:22.156Z,71.30
2022-11-15T08:23:51.291Z,75.45
2022-11-15T08:26:21.134Z,70.28
2022-11-15T08:28:51.005Z,72.03
2022-11-15T08:31:20.911Z,72.90
2022-11-15T08:33:50.690Z,71.82
2022-11-15T08:36:20.875Z,75.90
2022-11-15T08:38:50.558Z,66.75
2022-11-15T08:41:36.858Z,68.53
2022-11-15T08:44:05.501Z,68.35
2022-11-15T08:46:35.581Z,70.20
2022-11-15T08:49:05.679Z,70.38
2022-11-15T08:51:35.804Z,63.75
2022-11-15T08:54:06.055Z,63.33
2022-11-15T08:56:36.121Z,62.45
2022-11-15T08:59:06.339Z,63.55
2022-11-15T09:01:36.497Z,58.28
2022-11-15T09:04:06.743Z,62.13
2022-11-15T09:06:39.733Z,56.97
2022-11-15T09:09:13.267Z,61.95
2022-11-15T09:11:43.393Z,64.00
2022-11-15T09:14:15.942Z,54.47
2022-11-15T09:16:46.068Z,59.40
2022-11-15T09:19:16.278Z,59.00
2022-11-15T09:21:46.378Z,57.65
2022-11-15T09:24:16.571Z,55.67
2022-11-15T09:26:47.130Z,50.85
2022-11-15T09:29:17.178Z,52.35
2022-11-15T09:31:47.309Z,53.22
2022-11-15T09:34:17.511Z,47.97
2022-11-15T09:36:45.886Z,48.70
2022-11-15T09:39:14.366Z,51.20
2022-11-15T09:42:17.962Z,48.92
2022-11-15T09:45:29.139Z,47.70
2022-11-15T09:48:45.532Z,52.22
2022-11-15T09:51:49.252Z,46.80
2022-11-15T09:54:58.200Z,42.33
2022-11-15T09:58:01.830Z,44.08
2022-11-15T10:00:49.960Z,39.13
2022-11-15T10:03:38.534Z,40.67
2022-11-15T10:06:25.746Z,40.03
2022-11-15T10:09:24.129Z,35.38
2022-11-15T10:11:55.219Z,36.28
2022-11-15T10:14:32.135Z,32.65
2022-11-15T10:17:59.450Z,33.85
2022-11-15T10:20:59.494Z,29.40
2022-11-15T10:23:33.061Z,30.20
2022-11-15T10:26:14.650Z,29.70
2022-11-15T10:28:44.741Z,29.35
2022-11-15T10:31:28.983Z,43.40
2022-11-15T10:34:22.598Z,28.20
2022-11-15T10:37:02.695Z,26.67
2022-11-15T10:39:31.632Z,29.55
2022-11-15T10:42:17.896Z,27.38
2022-11-15T10:44:47.923Z,26.42
2022-11-15T10:47:45.673Z,25.33
2022-11-15T10:50:33.451Z,29.98
2022-11-15T10:53:03.971Z,26.52
2022-11-15T10:55:36.512Z,25.15
2022-11-15T10:58:34.484Z,26.92
2022-11-15T11:01:19.509Z,24.92
2022-11-15T11:04:10.814Z,26.08
2022-11-15T11:06:56.378Z,23.38
2022-11-15T11:09:38.802Z,28.67
2022-11-15T11:12:15.732Z,26.55
2022-11-15T11:14:45.766Z,26.98
2022-11-15T11:18:10.457Z,28.80
2022-11-15T11:20:55.126Z,30.80
2022-11-15T11:23:44.544Z,27.08
2022-11-15T11:27:08.577Z,25.83
2022-11-15T11:30:23.198Z,26.27
2022-11-15T11:33:23.073Z,21.45
2022-11-15T11:36:28.975Z,25.42
2022-11-15T11:39:49.273Z,24.40
2022-11-15T11:43:00.424Z,25.08
2022-11-15T11:45:47.500Z,21.23
2022-11-15T11:48:43.667Z,25.40
2022-11-15T11:51:40.957Z,21.08
2022-11-15T11:54:17.973Z,23.73
2022-11-15T11:56:52.762Z,21.63
2022-11-15T11:59:51.097Z,20.02
2022-11-15T12:02:46.160Z,25.55
2022-11-15T12:06:18.774Z,31.98
2022-11-15T12:09:31.400Z,22.45
2022-11-15T12:12:46.849Z,18.52
2022-11-15T12:15:30.992Z,22.33
2022-11-15T12:18:02.849Z,23.13
2022-11-15T12:20:55.381Z,21.75
2022-11-15T12:23:55.922Z,24.25
2022-11-15T12:26:43.749Z,17.55
2022-11-15T12:29:34.591Z,20.80
2022-11-15T12:32:19.004Z,15.93
2022-11-15T12:34:53.048Z,20.23
2022-11-15T12:37:47.027Z,18.52
2022-11-15T12:40:37.766Z,17.52
2022-11-15T12:43:16.763Z,21.77
2022-11-15T12:45:47.519Z,17.63
2022-11-15T12:48:18.272Z,24.20
2022-11-15T12:50:55.669Z,20.13
2022-11-15T12:53:28.693Z,17.50
2022-11-15T12:56:13.338Z,18.42
2022-11-15T12:58:57.250Z,18.88
2022-11-15T13:01:36.477Z,20.67
2022-11-15T13:04:31.170Z,18.75
2022-11-15T13:07:08.621Z,17.67
2022-11-15T13:09:38.492Z,21.92
2022-11-15T13:12:35.349Z,13.02
2022-11-15T13:15:14.373Z,18.13
2022-11-15T13:18:26.491Z,18.92
2022-11-15T13:21:01.978Z,19.17
2022-11-15T13:23:32.699Z,22.60
2022-11-15T13:26:19.034Z,24.83
2022-11-15T13:28:55.798Z,21.80
2022-11-15T13:31:41.536Z,23.80
2022-11-15T13:34:53.309Z,22.48
2022-11-15T13:37:23.375Z,24.27
2022-11-15T13:39:53.465Z,26.30
2022-11-15T13:42:24.799Z,28.23
2022-11-15T13:45:13.842Z,26.58
2022-11-15T13:47:43.954Z,25.55
2022-11-15T13:50:18.059Z,25.42
2022-11-15T13:52:50.194Z,27.15
2022-11-15T13:55:25.395Z,27.10
2022-11-15T13:58:07.277Z,26.88
2022-11-15T14:00:45.510Z,28.05
2022-11-15T14:03:28.890Z,26.05
2022-11-15T14:06:18.562Z,31.02
2022-11-15T14:09:35.277Z,31.38
2022-11-15T14:12:36.392Z,29.52
2022-11-15T14:15:37.223Z,27.08
2022-11-15T14:18:07.914Z,33.38
2022-11-15T14:20:41.242Z,31.48
2022-11-15T14:23:29.391Z,29.02
2022-11-15T14:26:01.222Z,29.35
2022-11-15T14:28:39.124Z,27.17
2022-11-15T14:31:16.257Z,32.83
2022-11-15T14:33:46.562Z,28.33
2022-11-15T14:36:22.984Z,28.85
2022-11-15T14:38:53.180Z,28.27
2022-11-15T14:41:27.402Z,30.10
2022-11-15T14:43:55.691Z,27.33
2022-11-15T14:46:25.697Z,30.33
2022-11-15T14:48:55.726Z,26.90
2022-11-15T14:51:25.491Z,25.52
2022-11-15T14:53:56.450Z,25.63
2022-11-15T14:56:26.619Z,27.90
2022-11-15T14:58:56.422Z,25.88
2022-11-15T15:01:28.314Z,26.67
2022-11-15T15:03:59.472Z,26.30
2022-11-15T15:06:30.108Z,29.95
2022-11-15T15:09:00.342Z,25.35
2022-11-15T15:11:32.839Z,23.52
2022-11-15T15:14:02.821Z,29.75
2022-11-15T15:16:32.966Z,25.73
2022-11-15T15:19:03.129Z,29.25
2022-11-15T15:21:36.839Z,24.60
2022-11-15T15:24:06.989Z,21.42
2022-11-15T15:26:37.556Z,22.58
2022-11-15T15:29:06.700Z,24.55
2022-11-15T15:31:35.039Z,29.77
2022-11-15T15:34:03.873Z,22.88
2022-11-15T15:36:33.947Z,24.95
2022-11-15T15:39:04.334Z,24.73
2022-11-15T15:41:34.336Z,28.80
2022-11-15T15:44:04.161Z,21.77
2022-11-15T15:46:36.331Z,23.50
2022-11-15T15:49:05.628Z,25.05
2022-11-15T15:51:35.390Z,29.90
2022-11-15T15:54:05.461Z,24.25
2022-11-15T15:56:35.240Z,26.45
2022-11-15T15:59:05.157Z,26.23
2022-11-15T16:01:35.025Z,28.25
2022-11-15T16:04:05.042Z,28.55
2022-11-15T16:06:45.239Z,29.65
2022-11-15T16:09:19.736Z,26.58
2022-11-15T16:11:48.413Z,29.88
2022-11-15T16:14:18.452Z,31.20
2022-11-15T16:16:48.241Z,28.65
2022-11-15T16:19:17.992Z,30.80
2022-11-15T16:21:53.027Z,27.15
2022-11-15T16:24:21.943Z,27.80
2022-11-15T16:26:53.267Z,32.70
2022-11-15T16:29:20.861Z,32.60
2022-11-15T16:31:50.547Z,35.65
2022-11-15T16:34:20.235Z,37.28
2022-11-15T16:36:51.817Z,30.48
2022-11-15T16:39:23.599Z,34.33
2022-11-15T16:41:53.719Z,31.75
2022-11-15T16:44:24.867Z,30.60
2022-11-15T16:46:55.172Z,33.92
2022-11-15T16:49:25.007Z,32.80
2022-11-15T16:51:54.868Z,36.42
2022-11-15T16:54:24.472Z,44.10
2022-11-15T16:56:53.787Z,43.00
2022-11-15T16:59:21.319Z,33.15
2022-11-15T17:01:52.722Z,40.45
2022-11-15T17:04:22.928Z,41.67
2022-11-15T17:06:53.307Z,36.28
2022-11-15T17:09:24.954Z,38.42
2022-11-15T17:11:54.291Z,38.85
2022-11-15T17:14:24.012Z,44.83
2022-11-15T17:16:56.019Z,44.38
2022-11-15T17:19:24.157Z,42.75
2022-11-15T17:21:54.282Z,44.25
2022-11-15T17:24:24.498Z,47.90
2022-11-15T17:26:53.898Z,48.97
2022-11-15T17:29:23.703Z,47.03
2022-11-15T17:31:53.425Z,54.95
2022-11-15T17:34:23.516Z,47.00
2022-11-15T17:36:53.199Z,53.35
2022-11-15T17:39:25.004Z,44.55
2022-11-15T17:41:54.158Z,46.85
2022-11-15T17:44:24.137Z,45.80
2022-11-15T17:46:53.946Z,49.20
2022-11-15T17:49:23.853Z,49.58
2022-11-15T17:51:53.962Z,63.20
2022-11-15T17:54:24.194Z,59.40
2022-11-15T17:57:53.967Z,61.10
2022-11-15T18:00:23.871Z,64.90
2022-11-15T18:02:53.420Z,62.47
2022-11-15T18:05:23.122Z,57.20
2022-11-15T18:07:51.199Z,55.28
2022-11-15T18:10:20.608Z,61.38
2022-11-15T18:12:50.584Z,57.05
2022-11-15T18:15:21.482Z,58.03
2022-11-15T18:17:50.960Z,57.15
2022-11-15T18:20:23.338Z,58.88
2022-11-15T18:22:54.603Z,57.55
2022-11-15T18:25:23.025Z,56.03
2022-11-15T18:27:55.376Z,53.17
2022-11-15T18:30:24.915Z,52.67
2022-11-15T18:32:55.460Z,55.22
2022-11-15T18:35:25.255Z,53.08
2022-11-15T18:37:56.184Z,55.47
2022-11-15T18:40:25.718Z,56.08
2022-11-15T18:42:55.403Z,58.80
2022-11-15T18:45:25.546Z,63.08
2022-11-15T18:47:55.450Z,64.22
2022-11-15T18:50:25.301Z,64.32
2022-11-15T18:52:55.463Z,71.88
2022-11-15T18:55:25.342Z,63.28
2022-11-15T18:57:55.096Z,73.30
2022-11-15T19:00:25.187Z,69.45
2022-11-15T19:02:55.322Z,72.28
2022-11-15T19:05:25.276Z,69.45
2022-11-15T19:07:55.146Z,66.93
2022-11-15T19:10:23.780Z,69.15
2022-11-15T19:12:52.381Z,64.85
2022-11-15T19:15:20.738Z,78.13
2022-11-15T19:17:49.199Z,71.32
2022-11-15T19:20:17.792Z,76.65
2022-11-15T19:22:46.206Z,78.57
2022-11-15T19:25:14.648Z,87.40
2022-11-15T19:27:43.040Z,87.53
2022-11-15T19:30:12.431Z,76.95
2022-11-15T19:32:40.062Z,74.38
2022-11-15T19:35:08.789Z,73.85
2022-11-15T19:37:36.805Z,76.95
2022-11-15T19:40:05.949Z,78.00
2022-11-15T19:42:33.638Z,77.03
2022-11-15T19:45:02.117Z,81.30
2022-11-15T19:47:30.603Z,80.75
2022-11-15T19:49:58.722Z,82.40
2022-11-15T19:52:27.517Z,85.63
2022-11-15T19:54:56.146Z,88.55
2022-11-15T19:57:24.531Z,90.10
2022-11-15T19:59:52.848Z,88.70
2022-11-15T20:02:21.388Z,89.05
2022-11-15T20:04:49.735Z,88.45
2022-11-15T20:07:18.372Z,97.75
2022-11-15T20:09:46.498Z,88.45
2022-11-15T20:12:17.390Z,94.35
2022-11-15T20:14:46.671Z,98.78
2022-11-15T20:17:14.725Z,98.28
2022-11-15T20:19:43.615Z,94.20
2022-11-15T20:22:11.552Z,111.50
2022-11-15T20:24:40.018Z,98.07
2022-11-15T20:27:08.647Z,99.70
2022-11-15T20:29:43.755Z,92.75
2022-11-15T20:32:15.003Z,108.00
2022-11-15T20:34:47.919Z,105.20
2022-11-15T20:37:20.689Z,115.68
2022-11-15T20:39:50.772Z,105.47
2022-11-15T20:42:21.086Z,103.13
2022-11-15T20:44:51.118Z,100.85
2022-11-15T20:47:21.172Z,104.25
2022-11-15T20:49:51.431Z,106.18
2022-11-15T20:52:21.588Z,96.50
2022-11-15T20:54:51.950Z,94.68
2022-11-15T20:57:22.149Z,98.03
2022-11-15T20:59:52.175Z,95.00
2022-11-15T21:02:22.324Z,86.05
2022-11-15T21:04:52.469Z,95.47
2022-11-15T21:07:22.552Z,96.32
2022-11-15T21:10:11.531Z,82.05
2022-11-15T21:12:41.700Z,85.80
2022-11-15T21:15:11.746Z,84.03
2022-11-15T21:17:41.811Z,83.55
2022-11-15T21:20:13.261Z,84.05
2022-11-15T21:22:43.899Z,95.05
2022-11-15T21:25:11.814Z,93.78
2022-11-15T21:27:40.229Z,91.10
2022-11-15T21:30:09.330Z,82.28
2022-11-15T21:32:39.215Z,82.70
2022-11-15T21:35:10.107Z,75.53
2022-11-15T21:37:40.724Z,79.47
2022-11-15T21:40:11.882Z,78.50
2022-11-15T21:42:41.951Z,80.07
2022-11-15T21:45:12.240Z,89.40
2022-11-15T21:47:44.750Z,86.80
2022-11-15T21:50:16.887Z,80.30
2022-11-15T21:52:47.204Z,82.68
2022-11-15T21:55:17.381Z,81.05
2022-11-15T21:57:47.457Z,98.57
2022-11-15T22:00:37.257Z,85.28
2022-11-15T22:03:07.332Z,85.10
2022-11-15T22:05:37.416Z,84.03
2022-11-15T22:08:07.486Z,81.05
2022-11-15T22:10:37.575Z,97.30
2022-11-15T22:13:07.656Z,87.75
2022-11-15T22:15:37.743Z,81.07
2022-11-15T22:18:08.198Z,84.45
2022-11-15T22:20:44.462Z,77.85
2022-11-15T22:23:15.271Z,81.75
2022-11-15T22:25:45.482Z,87.63
2022-11-15T22:28:16.103Z,90.60
2022-11-15T22:30:48.304Z,78.75
2022-11-15T22:33:18.996Z,83.00
2022-11-15T22:35:50.789Z,84.82
2022-11-15T22:38:22.436Z,76.97
2022-11-15T22:40:53.619Z,85.55
2022-11-15T22:43:27.051Z,85.00
2022-11-15T22:46:01.512Z,94.85
2022-11-15T22:48:39.759Z,88.47
2022-11-15T22:51:10.396Z,85.43
2022-11-15T22:53:40.593Z,89.00
2022-11-15T22:56:10.910Z,82.90
2022-11-15T22:58:41.144Z,82.97
2022-11-15T23:01:22.178Z,86.38
2022-11-15T23:03:55.638Z,86.53
2022-11-15T23:06:25.911Z,88.28
2022-11-15T23:08:56.104Z,95.88
2022-11-15T23:11:44.911Z,84.38
2022-11-15T23:14:14.999Z,85.53
2022-11-15T23:16:43.458Z,95.00
2022-11-15T23:19:13.686Z,96.00
2022-11-15T23:22:05.935Z,91.70
2022-11-15T23:24:36.142Z,91.13
2022-11-15T23:27:08.301Z,94.75
2022-11-15T23:29:58.469Z,89.05
2022-11-15T23:32:46.873Z,93.65
2022-11-15T23:35:17.565Z,84.90
2022-11-15T23:37:47.732Z,90.82
2022-11-15T23:40:18.313Z,89.13
2022-11-15T23:42:48.549Z,97.15
2022-11-15T23:45:18.864Z,87.65
2022-11-15T23:47:49.091Z,96.18
2022-11-15T23:50:19.484Z,94.38
2022-11-15T23:52:49.730Z,90.88
2022-11-15T23:55:19.943Z,91.78
2022-11-15T23:57:50.174Z,89.78
